Aviation Digital Data Service (ADDS)

Output produced by METARs form (1602 UTC 21 September 2017)
found at http://www.aviationweather.gov/adds/metars/
 
UAAA 211530Z VRB01MPS 5000 FU FEW100 SCT200 14/04 Q1015 R05L/CLRD65 NOSIG
TAF UAAA 211100Z 2112/2212 16005MPS 9999 SCT050CB BKN100 TX26/2209Z TN07/2201Z 
     TEMPO 2113/2118 3000 FU 
     BECMG 2203/2204 04005MPS
       
UAAH 211130Z 23004MPS 200V260 1500 FU NSC 23/07 Q1015 R23/0///60 NOSIG RMK QFE722/0963
TAF UAAH 211102Z 2112/2121 20007MPS CAVOK 
     BECMG 2115/2117 34005G10MPS
       
UACC 211530Z 03004MPS CAVOK 15/05 Q1015 R04/0///70 NOSIG RMK QFE730/0973
TAF UACC 211100Z 2112/2212 32006MPS 9999 SCT040 BKN100 TX13/2208Z TN09/2201Z 
     BECMG 2116/2118 02006MPS 
     BECMG 2206/2208 SCT020CB BKN070
       
UACK 211130Z 33007MPS CAVOK 17/06 Q1015 R20/010070 NOSIG RMK QFE738/0984
TAF UACK 211100Z 2112/2121 33007G12MPS 9999 SCT040 BKN100 
     TEMPO 2112/2116 SCT030CB
       
UACP 211130Z 36006MPS 9999 BKN012 OVC033CB 10/09 Q1017 R05/0/0060 NOSIG RMK QFE751/1001
TAF UACP 210801Z 2109/2118 32007MPS 9999 BKN030CB 
     TEMPO 2109/2113 36007MPS -SHRA
       
UADD 211530Z 16002MPS 120V200 9999 NSC 13/03 Q1015 R13/0///65 NOSIG RMK QFE704/0939
TAF UADD 211400Z 2115/2124 20005G10MPS 9999 NSC
       
UAII 211530Z 11005MPS CAVOK 24/01 Q1012 R10/0///70 NOSIG RMK QFE723/0965
TAF UAII 211100Z 2112/2212 33005MPS CAVOK TX32/2209Z TN15/2201Z 
     TEMPO 2112/2117 04003G08MPS 
     TEMPO 2117/2202 14004MPS
       
UAKK 211530Z 28003MPS 9999 FEW050CB 17/06 Q1014 R23/0///70 NOSIG RMK QFE714/0952
TAF UAKK 211100Z 2112/2212 31007MPS 9999 BKN030CB BKN100 TX15/2210Z TN05/2123Z 
     TEMPO 2112/2114 29010MPS 
     TEMPO 2118/2203 01005MPS 3000 -SHRA BR SCT006 BKN015CB 
     BECMG 2203/2205 03008G13MPS 
     TEMPO 2205/2212 -SHRA BKN015CB
       
UAOO 211530Z 04003MPS CAVOK 21/02 Q1014 R05/CLRD70 NOSIG RMK QFE749/0999
TAF UAOO 211400Z 2115/2124 06005MPS CAVOK 
     TEMPO 2115/2119 08010MPS
       
UARR 211530Z 01004MPS CAVOK 18/05 Q1021 R04/CLRD70 NOSIG RMK QFE763/1017
TAF UARR 211400Z 2115/2124 02005MPS 9999 SCT033 
     TEMPO 2118/2124 SCT030CB
       
UASK 211530Z VRB01MPS 9999 -SHRA SCT030CB BKN086 14/10 Q1010 R12/290155 NOSIG RMK QFE732/0976
TAF UASK 211404Z 2115/2124 16005G10MPS 9999 SCT030CB BKN100 
     TEMPO 2115/2121 31005G10MPS 4000 -SHRA BR FEW006 BKN020CB
       
UASP 211530Z 35005MPS 9999 FEW040CB BKN083 13/07 Q1013 R21/0///70 NOSIG RMK QFE748/0998
TAF UASP 211400Z 2115/2124 34005MPS 9999 BKN020CB OVC100 
     TEMPO 2115/2118 34009MPS 3000 -SHRA FU SCT006 
     TEMPO 2118/2124 2100 -SHRA BR FU SCT006
       
UASS 211230Z 32003MPS CAVOK 23/08 Q1010 NOSIG RMK QFE739/0985
TAF UASS 211100Z 2112/2121 32006G11MPS 9999 SCT030 BKN100 
     TEMPO 2112/2118 5000 -SHRA BKN030CB
       
UATE 211530Z 36002G09MPS CAVOK 23/09 Q1015 R30/0///70 NOSIG RMK QFE760/1013
TAF UATE 211101Z 2112/2212 27006MPS CAVOK TX33/2209Z TN16/2202Z 
     BECMG 2118/2120 04005MPS
       
UATG 211530Z 21002MPS CAVOK 23/05 Q1018 R14/CLRD70 NOSIG RMK QFE765/1020
TAF UATG 211100Z 2112/2212 16007MPS 9999 SCT033 TX30/2211Z TN17/2201Z 
     BECMG 2114/2116 VRB02MPS 
     BECMG 2203/2204 03005MPS
       
UATT 211530Z 34004MPS 8000 NSC 22/M01 Q1018 R31/////// NOSIG RMK QFE744/0992
TAF UATT 211100Z 2112/2212 33005MPS CAVOK TX29/2112Z TN10/2201Z 
     FM211500 36005MPS 3000 FU NSC 
     FM220200 09008MPS 9999 BKN020CB 
     TEMPO 2204/2212 07013MPS BKN010
       
UAUU 211530Z 01005MPS 9999 BKN050CB 15/08 Q1020 R33/CLRD70 NOSIG RMK QFE749/0999
TAF UAUU 211400Z 2115/2124 01005MPS 9999 BKN020CB 
     TEMPO 2115/2116 4000 -SHRA 
     TEMPO 2116/2124 02009MPS 2000 -SHRA BR SCT006 BKN010CB